sensor_id;sensor_type;location;lat;lon;timestamp;P1;durP1;ratioP1;P2;durP2;ratioP2
56102;SDS011;41970;48.774;9.280;2022-07-09T00:01:18;3.13;;;2.80;;
56102;SDS011;41970;48.774;9.280;2022-07-09T00:03:44;3.00;;;2.70;;
56102;SDS011;41970;48.774;9.280;2022-07-09T00:06:10;3.57;;;2.80;;
56102;SDS011;41970;48.774;9.280;2022-07-09T00:08:36;3.13;;;2.70;;
56102;SDS011;41970;48.774;9.280;2022-07-09T00:11:01;3.37;;;2.90;;
56102;SDS011;41970;48.774;9.280;2022-07-09T00:13:27;4.93;;;3.43;;
56102;SDS011;41970;48.774;9.280;2022-07-09T00:15:53;5.60;;;3.17;;
56102;SDS011;41970;48.774;9.280;2022-07-09T00:18:19;4.00;;;3.20;;
56102;SDS011;41970;48.774;9.280;2022-07-09T00:20:45;4.10;;;3.10;;
56102;SDS011;41970;48.774;9.280;2022-07-09T00:23:10;4.07;;;3.20;;
56102;SDS011;41970;48.774;9.280;2022-07-09T00:25:36;4.80;;;3.50;;
56102;SDS011;41970;48.774;9.280;2022-07-09T00:28:02;4.33;;;2.77;;
56102;SDS011;41970;48.774;9.280;2022-07-09T00:30:28;3.43;;;3.13;;
56102;SDS011;41970;48.774;9.280;2022-07-09T00:32:54;3.37;;;2.80;;
56102;SDS011;41970;48.774;9.280;2022-07-09T00:35:20;3.80;;;3.40;;
56102;SDS011;41970;48.774;9.280;2022-07-09T00:37:46;5.93;;;3.70;;
56102;SDS011;41970;48.774;9.280;2022-07-09T00:40:11;5.03;;;3.47;;
56102;SDS011;41970;48.774;9.280;2022-07-09T00:42:37;5.70;;;3.60;;
56102;SDS011;41970;48.774;9.280;2022-07-09T00:45:03;4.43;;;3.17;;
56102;SDS011;41970;48.774;9.280;2022-07-09T00:47:30;4.07;;;2.70;;
56102;SDS011;41970;48.774;9.280;2022-07-09T00:49:55;4.07;;;3.67;;
56102;SDS011;41970;48.774;9.280;2022-07-09T00:52:22;3.00;;;2.60;;
56102;SDS011;41970;48.774;9.280;2022-07-09T00:54:48;4.87;;;2.93;;
56102;SDS011;41970;48.774;9.280;2022-07-09T00:57:15;3.93;;;3.53;;
56102;SDS011;41970;48.774;9.280;2022-07-09T00:59:42;4.13;;;2.73;;
56102;SDS011;41970;48.774;9.280;2022-07-09T01:02:08;5.47;;;3.47;;
56102;SDS011;41970;48.774;9.280;2022-07-09T01:04:34;4.10;;;3.80;;
56102;SDS011;41970;48.774;9.280;2022-07-09T01:07:01;4.17;;;3.77;;
56102;SDS011;41970;48.774;9.280;2022-07-09T01:09:28;4.10;;;3.13;;
56102;SDS011;41970;48.774;9.280;2022-07-09T01:11:54;2.80;;;2.60;;
56102;SDS011;41970;48.774;9.280;2022-07-09T01:14:21;3.80;;;3.47;;
56102;SDS011;41970;48.774;9.280;2022-07-09T01:16:47;3.50;;;3.20;;
56102;SDS011;41970;48.774;9.280;2022-07-09T01:19:21;4.70;;;3.57;;
56102;SDS011;41970;48.774;9.280;2022-07-09T01:21:47;3.40;;;3.10;;
56102;SDS011;41970;48.774;9.280;2022-07-09T01:24:13;7.20;;;3.00;;
56102;SDS011;41970;48.774;9.280;2022-07-09T01:26:39;2.93;;;2.70;;
56102;SDS011;41970;48.774;9.280;2022-07-09T01:29:05;3.60;;;3.07;;
56102;SDS011;41970;48.774;9.280;2022-07-09T01:31:31;5.33;;;3.43;;
56102;SDS011;41970;48.774;9.280;2022-07-09T01:33:56;5.53;;;2.90;;
56102;SDS011;41970;48.774;9.280;2022-07-09T01:36:22;3.20;;;2.90;;
56102;SDS011;41970;48.774;9.280;2022-07-09T01:38:48;4.20;;;3.60;;
56102;SDS011;41970;48.774;9.280;2022-07-09T01:41:14;4.00;;;3.60;;
56102;SDS011;41970;48.774;9.280;2022-07-09T01:43:40;4.70;;;3.57;;
56102;SDS011;41970;48.774;9.280;2022-07-09T01:46:05;4.30;;;3.07;;
56102;SDS011;41970;48.774;9.280;2022-07-09T01:48:32;5.03;;;3.70;;
56102;SDS011;41970;48.774;9.280;2022-07-09T01:51:00;4.60;;;3.40;;
56102;SDS011;41970;48.774;9.280;2022-07-09T01:53:27;5.03;;;3.60;;
56102;SDS011;41970;48.774;9.280;2022-07-09T01:55:52;5.03;;;3.33;;
56102;SDS011;41970;48.774;9.280;2022-07-09T01:58:18;3.20;;;2.80;;
56102;SDS011;41970;48.774;9.280;2022-07-09T02:00:44;5.43;;;3.20;;
56102;SDS011;41970;48.774;9.280;2022-07-09T02:03:10;7.00;;;3.13;;
56102;SDS011;41970;48.774;9.280;2022-07-09T02:05:36;3.27;;;2.63;;
56102;SDS011;41970;48.774;9.280;2022-07-09T02:08:02;5.77;;;3.43;;
56102;SDS011;41970;48.774;9.280;2022-07-09T02:10:28;4.37;;;3.23;;
56102;SDS011;41970;48.774;9.280;2022-07-09T02:12:53;3.47;;;3.17;;
56102;SDS011;41970;48.774;9.280;2022-07-09T02:15:19;3.83;;;3.50;;
56102;SDS011;41970;48.774;9.280;2022-07-09T02:17:46;3.40;;;3.10;;
56102;SDS011;41970;48.774;9.280;2022-07-09T02:20:12;3.50;;;3.30;;
56102;SDS011;41970;48.774;9.280;2022-07-09T02:22:38;3.53;;;2.97;;
56102;SDS011;41970;48.774;9.280;2022-07-09T02:25:04;3.40;;;3.10;;
56102;SDS011;41970;48.774;9.280;2022-07-09T02:27:30;5.33;;;3.20;;
56102;SDS011;41970;48.774;9.280;2022-07-09T02:29:56;3.27;;;3.00;;
56102;SDS011;41970;48.774;9.280;2022-07-09T02:32:22;3.27;;;2.90;;
56102;SDS011;41970;48.774;9.280;2022-07-09T02:34:48;4.47;;;3.20;;
56102;SDS011;41970;48.774;9.280;2022-07-09T02:37:14;3.73;;;3.40;;
56102;SDS011;41970;48.774;9.280;2022-07-09T02:39:39;3.87;;;3.57;;
56102;SDS011;41970;48.774;9.280;2022-07-09T02:42:05;6.03;;;3.90;;
56102;SDS011;41970;48.774;9.280;2022-07-09T02:44:31;5.30;;;3.30;;
56102;SDS011;41970;48.774;9.280;2022-07-09T02:46:57;5.10;;;3.23;;
56102;SDS011;41970;48.774;9.280;2022-07-09T02:49:24;3.70;;;3.40;;
56102;SDS011;41970;48.774;9.280;2022-07-09T02:51:50;5.53;;;3.60;;
56102;SDS011;41970;48.774;9.280;2022-07-09T02:54:17;4.27;;;3.20;;
56102;SDS011;41970;48.774;9.280;2022-07-09T02:56:43;4.23;;;3.20;;
56102;SDS011;41970;48.774;9.280;2022-07-09T02:59:08;8.60;;;3.17;;
56102;SDS011;41970;48.774;9.280;2022-07-09T03:01:34;5.90;;;3.23;;
56102;SDS011;41970;48.774;9.280;2022-07-09T03:04:00;4.33;;;3.77;;
56102;SDS011;41970;48.774;9.280;2022-07-09T03:06:26;5.30;;;3.60;;
56102;SDS011;41970;48.774;9.280;2022-07-09T03:08:52;3.67;;;3.33;;
56102;SDS011;41970;48.774;9.280;2022-07-09T03:11:17;4.53;;;2.97;;
56102;SDS011;41970;48.774;9.280;2022-07-09T03:13:43;6.83;;;3.60;;
56102;SDS011;41970;48.774;9.280;2022-07-09T03:16:09;4.57;;;3.70;;
56102;SDS011;41970;48.774;9.280;2022-07-09T03:18:35;3.53;;;3.20;;
56102;SDS011;41970;48.774;9.280;2022-07-09T03:21:02;4.30;;;3.67;;
56102;SDS011;41970;48.774;9.280;2022-07-09T03:23:28;4.33;;;3.00;;
56102;SDS011;41970;48.774;9.280;2022-07-09T03:25:54;4.37;;;3.47;;
56102;SDS011;41970;48.774;9.280;2022-07-09T03:28:20;3.50;;;3.10;;
56102;SDS011;41970;48.774;9.280;2022-07-09T03:30:46;4.57;;;3.30;;
56102;SDS011;41970;48.774;9.280;2022-07-09T03:33:11;4.60;;;3.17;;
56102;SDS011;41970;48.774;9.280;2022-07-09T03:35:37;4.50;;;3.27;;
56102;SDS011;41970;48.774;9.280;2022-07-09T03:38:04;5.17;;;3.53;;
56102;SDS011;41970;48.774;9.280;2022-07-09T03:40:30;6.80;;;4.00;;
56102;SDS011;41970;48.774;9.280;2022-07-09T03:42:56;3.70;;;3.40;;
56102;SDS011;41970;48.774;9.280;2022-07-09T03:45:22;3.60;;;3.30;;
56102;SDS011;41970;48.774;9.280;2022-07-09T03:47:48;2.80;;;2.60;;
56102;SDS011;41970;48.774;9.280;2022-07-09T03:50:15;4.43;;;3.30;;
56102;SDS011;41970;48.774;9.280;2022-07-09T03:52:41;4.00;;;3.23;;
56102;SDS011;41970;48.774;9.280;2022-07-09T03:55:07;6.17;;;3.80;;
56102;SDS011;41970;48.774;9.280;2022-07-09T03:57:33;5.23;;;3.50;;
56102;SDS011;41970;48.774;9.280;2022-07-09T03:59:59;3.37;;;2.83;;
56102;SDS011;41970;48.774;9.280;2022-07-09T04:02:25;4.00;;;3.43;;
56102;SDS011;41970;48.774;9.280;2022-07-09T04:04:51;3.23;;;3.00;;
56102;SDS011;41970;48.774;9.280;2022-07-09T04:07:17;3.53;;;3.23;;
56102;SDS011;41970;48.774;9.280;2022-07-09T04:09:42;4.50;;;3.20;;
56102;SDS011;41970;48.774;9.280;2022-07-09T04:12:08;2.80;;;2.60;;
56102;SDS011;41970;48.774;9.280;2022-07-09T04:14:34;4.00;;;3.27;;
56102;SDS011;41970;48.774;9.280;2022-07-09T04:17:00;4.00;;;3.20;;
56102;SDS011;41970;48.774;9.280;2022-07-09T04:19:26;3.50;;;3.03;;
56102;SDS011;41970;48.774;9.280;2022-07-09T04:21:52;3.80;;;3.50;;
56102;SDS011;41970;48.774;9.280;2022-07-09T04:24:17;5.60;;;3.83;;
56102;SDS011;41970;48.774;9.280;2022-07-09T04:26:43;7.90;;;3.63;;
56102;SDS011;41970;48.774;9.280;2022-07-09T04:29:09;3.90;;;3.60;;
56102;SDS011;41970;48.774;9.280;2022-07-09T04:31:35;5.50;;;3.63;;
56102;SDS011;41970;48.774;9.280;2022-07-09T04:34:01;3.53;;;3.23;;
56102;SDS011;41970;48.774;9.280;2022-07-09T04:36:27;3.90;;;3.60;;
56102;SDS011;41970;48.774;9.280;2022-07-09T04:38:54;4.20;;;3.20;;
56102;SDS011;41970;48.774;9.280;2022-07-09T04:41:21;4.30;;;3.77;;
56102;SDS011;41970;48.774;9.280;2022-07-09T04:43:47;3.40;;;3.10;;
56102;SDS011;41970;48.774;9.280;2022-07-09T04:46:13;3.40;;;3.17;;
56102;SDS011;41970;48.774;9.280;2022-07-09T04:48:41;4.57;;;3.30;;
56102;SDS011;41970;48.774;9.280;2022-07-09T04:51:07;4.57;;;3.53;;
56102;SDS011;41970;48.774;9.280;2022-07-09T04:53:32;4.30;;;4.00;;
56102;SDS011;41970;48.774;9.280;2022-07-09T04:55:58;4.37;;;3.97;;
56102;SDS011;41970;48.774;9.280;2022-07-09T04:58:24;4.73;;;4.10;;
56102;SDS011;41970;48.774;9.280;2022-07-09T05:00:50;5.00;;;3.40;;
56102;SDS011;41970;48.774;9.280;2022-07-09T05:03:16;4.13;;;3.67;;
56102;SDS011;41970;48.774;9.280;2022-07-09T05:05:41;4.43;;;4.03;;
56102;SDS011;41970;48.774;9.280;2022-07-09T05:08:08;5.37;;;3.57;;
56102;SDS011;41970;48.774;9.280;2022-07-09T05:10:34;6.30;;;4.00;;
56102;SDS011;41970;48.774;9.280;2022-07-09T05:12:59;3.93;;;3.30;;
56102;SDS011;41970;48.774;9.280;2022-07-09T05:15:26;3.90;;;3.50;;
56102;SDS011;41970;48.774;9.280;2022-07-09T05:17:52;3.67;;;3.37;;
56102;SDS011;41970;48.774;9.280;2022-07-09T05:20:18;4.87;;;3.70;;
56102;SDS011;41970;48.774;9.280;2022-07-09T05:22:44;8.90;;;3.63;;
56102;SDS011;41970;48.774;9.280;2022-07-09T05:25:10;5.83;;;3.67;;
56102;SDS011;41970;48.774;9.280;2022-07-09T05:27:42;5.33;;;3.10;;
56102;SDS011;41970;48.774;9.280;2022-07-09T05:30:09;3.90;;;3.60;;
56102;SDS011;41970;48.774;9.280;2022-07-09T05:32:38;3.77;;;3.40;;
56102;SDS011;41970;48.774;9.280;2022-07-09T05:35:04;4.07;;;3.37;;
56102;SDS011;41970;48.774;9.280;2022-07-09T05:37:30;4.40;;;4.00;;
56102;SDS011;41970;48.774;9.280;2022-07-09T05:39:56;4.50;;;3.50;;
56102;SDS011;41970;48.774;9.280;2022-07-09T05:42:23;3.97;;;3.57;;
56102;SDS011;41970;48.774;9.280;2022-07-09T05:44:49;3.70;;;3.40;;
56102;SDS011;41970;48.774;9.280;2022-07-09T05:47:15;3.50;;;3.20;;
56102;SDS011;41970;48.774;9.280;2022-07-09T05:49:41;3.63;;;3.33;;
56102;SDS011;41970;48.774;9.280;2022-07-09T05:52:07;3.47;;;3.17;;
56102;SDS011;41970;48.774;9.280;2022-07-09T05:54:33;5.40;;;3.87;;
56102;SDS011;41970;48.774;9.280;2022-07-09T05:56:59;3.77;;;3.23;;
56102;SDS011;41970;48.774;9.280;2022-07-09T05:59:25;6.53;;;3.70;;
56102;SDS011;41970;48.774;9.280;2022-07-09T06:01:51;3.40;;;2.80;;
56102;SDS011;41970;48.774;9.280;2022-07-09T06:04:16;4.27;;;3.50;;
56102;SDS011;41970;48.774;9.280;2022-07-09T06:06:42;4.07;;;3.67;;
56102;SDS011;41970;48.774;9.280;2022-07-09T06:09:08;4.03;;;3.00;;
56102;SDS011;41970;48.774;9.280;2022-07-09T06:11:35;4.60;;;3.53;;
56102;SDS011;41970;48.774;9.280;2022-07-09T06:14:01;5.23;;;3.70;;
56102;SDS011;41970;48.774;9.280;2022-07-09T06:16:26;4.70;;;3.63;;
56102;SDS011;41970;48.774;9.280;2022-07-09T06:18:52;4.23;;;3.50;;
56102;SDS011;41970;48.774;9.280;2022-07-09T06:21:19;5.77;;;3.87;;
56102;SDS011;41970;48.774;9.280;2022-07-09T06:23:44;4.23;;;2.93;;
56102;SDS011;41970;48.774;9.280;2022-07-09T06:26:10;3.93;;;3.10;;
56102;SDS011;41970;48.774;9.280;2022-07-09T06:28:37;3.77;;;3.43;;
56102;SDS011;41970;48.774;9.280;2022-07-09T06:31:03;5.43;;;3.70;;
56102;SDS011;41970;48.774;9.280;2022-07-09T06:33:29;6.03;;;3.30;;
56102;SDS011;41970;48.774;9.280;2022-07-09T06:35:55;4.50;;;3.40;;
56102;SDS011;41970;48.774;9.280;2022-07-09T06:38:21;4.97;;;3.90;;
56102;SDS011;41970;48.774;9.280;2022-07-09T06:40:47;4.03;;;3.20;;
56102;SDS011;41970;48.774;9.280;2022-07-09T06:43:12;4.37;;;3.07;;
56102;SDS011;41970;48.774;9.280;2022-07-09T06:45:38;3.00;;;2.50;;
56102;SDS011;41970;48.774;9.280;2022-07-09T06:48:04;3.97;;;3.60;;
56102;SDS011;41970;48.774;9.280;2022-07-09T06:50:30;4.40;;;3.63;;
56102;SDS011;41970;48.774;9.280;2022-07-09T06:52:56;4.70;;;3.70;;
56102;SDS011;41970;48.774;9.280;2022-07-09T06:55:22;5.80;;;3.50;;
56102;SDS011;41970;48.774;9.280;2022-07-09T06:57:48;3.63;;;3.23;;
56102;SDS011;41970;48.774;9.280;2022-07-09T07:00:14;3.47;;;3.03;;
56102;SDS011;41970;48.774;9.280;2022-07-09T07:02:40;9.73;;;5.50;;
56102;SDS011;41970;48.774;9.280;2022-07-09T07:05:06;4.23;;;3.40;;
56102;SDS011;41970;48.774;9.280;2022-07-09T07:07:32;4.90;;;3.70;;
56102;SDS011;41970;48.774;9.280;2022-07-09T07:09:58;5.07;;;3.60;;
56102;SDS011;41970;48.774;9.280;2022-07-09T07:12:24;4.13;;;3.00;;
56102;SDS011;41970;48.774;9.280;2022-07-09T07:14:50;5.80;;;3.83;;
56102;SDS011;41970;48.774;9.280;2022-07-09T07:17:16;5.73;;;3.83;;
56102;SDS011;41970;48.774;9.280;2022-07-09T07:19:42;3.30;;;3.00;;
56102;SDS011;41970;48.774;9.280;2022-07-09T07:22:08;3.77;;;3.10;;
56102;SDS011;41970;48.774;9.280;2022-07-09T07:24:34;4.63;;;3.20;;
56102;SDS011;41970;48.774;9.280;2022-07-09T07:27:00;7.63;;;3.70;;
56102;SDS011;41970;48.774;9.280;2022-07-09T07:29:26;4.27;;;2.70;;
56102;SDS011;41970;48.774;9.280;2022-07-09T07:31:52;2.70;;;2.50;;
56102;SDS011;41970;48.774;9.280;2022-07-09T07:34:18;2.90;;;2.67;;
56102;SDS011;41970;48.774;9.280;2022-07-09T07:36:47;4.20;;;3.20;;
56102;SDS011;41970;48.774;9.280;2022-07-09T07:39:17;3.60;;;2.57;;
56102;SDS011;41970;48.774;9.280;2022-07-09T07:41:44;3.63;;;2.80;;
56102;SDS011;41970;48.774;9.280;2022-07-09T07:44:10;6.10;;;3.40;;
56102;SDS011;41970;48.774;9.280;2022-07-09T07:46:35;5.50;;;3.40;;
56102;SDS011;41970;48.774;9.280;2022-07-09T07:49:01;4.10;;;2.77;;
56102;SDS011;41970;48.774;9.280;2022-07-09T07:51:27;3.20;;;2.77;;
56102;SDS011;41970;48.774;9.280;2022-07-09T07:53:53;4.70;;;4.23;;
56102;SDS011;41970;48.774;9.280;2022-07-09T07:56:19;3.07;;;2.77;;
56102;SDS011;41970;48.774;9.280;2022-07-09T07:58:44;5.47;;;3.40;;
56102;SDS011;41970;48.774;9.280;2022-07-09T08:01:10;4.20;;;3.70;;
56102;SDS011;41970;48.774;9.280;2022-07-09T08:03:36;6.37;;;3.90;;
56102;SDS011;41970;48.774;9.280;2022-07-09T08:06:02;5.80;;;3.70;;
56102;SDS011;41970;48.774;9.280;2022-07-09T08:08:28;3.90;;;2.90;;
56102;SDS011;41970;48.774;9.280;2022-07-09T08:10:54;6.30;;;4.40;;
56102;SDS011;41970;48.774;9.280;2022-07-09T08:13:19;4.43;;;3.13;;
56102;SDS011;41970;48.774;9.280;2022-07-09T08:15:45;2.80;;;2.60;;
56102;SDS011;41970;48.774;9.280;2022-07-09T08:18:11;5.57;;;2.57;;
56102;SDS011;41970;48.774;9.280;2022-07-09T08:20:39;3.60;;;2.73;;
56102;SDS011;41970;48.774;9.280;2022-07-09T08:23:06;3.90;;;3.07;;
56102;SDS011;41970;48.774;9.280;2022-07-09T08:25:32;3.80;;;3.10;;
56102;SDS011;41970;48.774;9.280;2022-07-09T08:27:58;3.30;;;3.00;;
56102;SDS011;41970;48.774;9.280;2022-07-09T08:30:24;4.37;;;2.60;;
56102;SDS011;41970;48.774;9.280;2022-07-09T08:32:49;4.40;;;2.30;;
56102;SDS011;41970;48.774;9.280;2022-07-09T08:35:15;2.40;;;2.17;;
56102;SDS011;41970;48.774;9.280;2022-07-09T08:37:41;3.67;;;2.10;;
56102;SDS011;41970;48.774;9.280;2022-07-09T08:40:07;2.83;;;2.27;;
56102;SDS011;41970;48.774;9.280;2022-07-09T08:42:33;3.10;;;1.90;;
56102;SDS011;41970;48.774;9.280;2022-07-09T08:44:59;2.50;;;1.97;;
56102;SDS011;41970;48.774;9.280;2022-07-09T08:47:26;3.43;;;1.70;;
56102;SDS011;41970;48.774;9.280;2022-07-09T08:49:56;2.20;;;1.50;;
56102;SDS011;41970;48.774;9.280;2022-07-09T08:52:24;2.20;;;2.00;;
56102;SDS011;41970;48.774;9.280;2022-07-09T08:54:54;1.67;;;1.43;;
56102;SDS011;41970;48.774;9.280;2022-07-09T08:57:20;4.10;;;2.67;;
56102;SDS011;41970;48.774;9.280;2022-07-09T08:59:48;4.50;;;1.40;;
56102;SDS011;41970;48.774;9.280;2022-07-09T09:02:14;3.73;;;1.93;;
56102;SDS011;41970;48.774;9.280;2022-07-09T09:04:40;6.07;;;1.87;;
56102;SDS011;41970;48.774;9.280;2022-07-09T09:07:13;3.00;;;1.60;;
56102;SDS011;41970;48.774;9.280;2022-07-09T09:09:47;1.63;;;1.47;;
56102;SDS011;41970;48.774;9.280;2022-07-09T09:12:13;2.27;;;1.80;;
56102;SDS011;41970;48.774;9.280;2022-07-09T09:14:47;3.00;;;1.87;;
56102;SDS011;41970;48.774;9.280;2022-07-09T09:17:14;5.77;;;2.00;;
56102;SDS011;41970;48.774;9.280;2022-07-09T09:19:40;3.40;;;2.00;;
56102;SDS011;41970;48.774;9.280;2022-07-09T09:22:06;2.73;;;1.73;;
56102;SDS011;41970;48.774;9.280;2022-07-09T09:24:32;1.53;;;1.43;;
56102;SDS011;41970;48.774;9.280;2022-07-09T09:26:59;4.87;;;1.80;;
56102;SDS011;41970;48.774;9.280;2022-07-09T09:29:29;3.80;;;2.00;;
56102;SDS011;41970;48.774;9.280;2022-07-09T09:31:55;3.50;;;2.10;;
56102;SDS011;41970;48.774;9.280;2022-07-09T09:34:21;4.50;;;1.70;;
56102;SDS011;41970;48.774;9.280;2022-07-09T09:36:51;1.77;;;1.67;;
56102;SDS011;41970;48.774;9.280;2022-07-09T09:42:07;2.63;;;1.90;;
56102;SDS011;41970;48.774;9.280;2022-07-09T09:44:39;3.33;;;1.63;;
56102;SDS011;41970;48.774;9.280;2022-07-09T09:47:07;3.87;;;1.80;;
56102;SDS011;41970;48.774;9.280;2022-07-09T09:49:34;1.73;;;1.40;;
56102;SDS011;41970;48.774;9.280;2022-07-09T09:52:02;2.10;;;1.40;;
56102;SDS011;41970;48.774;9.280;2022-07-09T09:54:39;1.67;;;1.40;;
56102;SDS011;41970;48.774;9.280;2022-07-09T09:57:08;1.80;;;1.37;;
56102;SDS011;41970;48.774;9.280;2022-07-09T09:59:39;1.83;;;1.43;;
56102;SDS011;41970;48.774;9.280;2022-07-09T10:02:07;2.47;;;1.60;;
56102;SDS011;41970;48.774;9.280;2022-07-09T10:04:38;1.73;;;1.40;;
56102;SDS011;41970;48.774;9.280;2022-07-09T10:07:05;3.20;;;1.47;;
56102;SDS011;41970;48.774;9.280;2022-07-09T10:09:31;1.93;;;1.73;;
56102;SDS011;41970;48.774;9.280;2022-07-09T10:11:58;2.80;;;1.83;;
56102;SDS011;41970;48.774;9.280;2022-07-09T10:16:50;2.83;;;1.83;;
56102;SDS011;41970;48.774;9.280;2022-07-09T10:19:29;2.37;;;1.60;;
56102;SDS011;41970;48.774;9.280;2022-07-09T10:21:58;2.00;;;1.80;;
56102;SDS011;41970;48.774;9.280;2022-07-09T10:24:29;2.30;;;1.43;;
56102;SDS011;41970;48.774;9.280;2022-07-09T10:27:09;7.30;;;2.80;;
56102;SDS011;41970;48.774;9.280;2022-07-09T10:29:36;4.27;;;2.10;;
56102;SDS011;41970;48.774;9.280;2022-07-09T10:32:31;3.27;;;1.87;;
56102;SDS011;41970;48.774;9.280;2022-07-09T10:34:58;3.80;;;2.00;;
56102;SDS011;41970;48.774;9.280;2022-07-09T10:40:12;1.93;;;1.70;;
56102;SDS011;41970;48.774;9.280;2022-07-09T10:42:43;2.27;;;1.93;;
56102;SDS011;41970;48.774;9.280;2022-07-09T10:45:26;2.03;;;1.60;;
56102;SDS011;41970;48.774;9.280;2022-07-09T10:47:59;2.00;;;1.90;;
56102;SDS011;41970;48.774;9.280;2022-07-09T10:50:29;4.27;;;2.00;;
56102;SDS011;41970;48.774;9.280;2022-07-09T10:52:56;2.30;;;1.80;;
56102;SDS011;41970;48.774;9.280;2022-07-09T10:55:24;2.47;;;2.27;;
56102;SDS011;41970;48.774;9.280;2022-07-09T10:57:51;2.93;;;1.90;;
56102;SDS011;41970;48.774;9.280;2022-07-09T11:00:21;4.50;;;1.60;;
56102;SDS011;41970;48.774;9.280;2022-07-09T11:02:58;1.93;;;1.83;;
56102;SDS011;41970;48.774;9.280;2022-07-09T11:05:28;5.33;;;1.83;;
56102;SDS011;41970;48.774;9.280;2022-07-09T11:08:06;3.27;;;1.57;;
56102;SDS011;41970;48.774;9.280;2022-07-09T11:10:34;3.23;;;2.33;;
56102;SDS011;41970;48.774;9.280;2022-07-09T11:13:03;2.37;;;2.10;;
56102;SDS011;41970;48.774;9.280;2022-07-09T11:15:32;9.40;;;8.53;;
56102;SDS011;41970;48.774;9.280;2022-07-09T11:18:05;3.70;;;2.20;;
56102;SDS011;41970;48.774;9.280;2022-07-09T11:20:36;2.13;;;1.93;;
56102;SDS011;41970;48.774;9.280;2022-07-09T11:23:03;3.30;;;1.97;;
56102;SDS011;41970;48.774;9.280;2022-07-09T11:25:29;3.10;;;1.60;;
56102;SDS011;41970;48.774;9.280;2022-07-09T11:27:56;2.50;;;2.17;;
56102;SDS011;41970;48.774;9.280;2022-07-09T11:30:23;2.60;;;1.73;;
56102;SDS011;41970;48.774;9.280;2022-07-09T11:32:50;3.33;;;1.93;;
56102;SDS011;41970;48.774;9.280;2022-07-09T11:35:30;1.87;;;1.70;;
56102;SDS011;41970;48.774;9.280;2022-07-09T11:38:02;2.43;;;1.90;;
56102;SDS011;41970;48.774;9.280;2022-07-09T11:40:30;1.50;;;1.40;;
56102;SDS011;41970;48.774;9.280;2022-07-09T11:42:56;2.83;;;2.03;;
56102;SDS011;41970;48.774;9.280;2022-07-09T11:45:23;2.10;;;1.90;;
56102;SDS011;41970;48.774;9.280;2022-07-09T11:48:01;1.50;;;1.33;;
56102;SDS011;41970;48.774;9.280;2022-07-09T11:50:29;2.20;;;1.80;;
56102;SDS011;41970;48.774;9.280;2022-07-09T11:52:56;1.90;;;1.80;;
56102;SDS011;41970;48.774;9.280;2022-07-09T11:55:27;2.57;;;1.80;;
56102;SDS011;41970;48.774;9.280;2022-07-09T11:58:06;1.70;;;1.60;;
56102;SDS011;41970;48.774;9.280;2022-07-09T12:00:34;1.80;;;1.37;;
56102;SDS011;41970;48.774;9.280;2022-07-09T12:03:04;3.47;;;1.77;;
56102;SDS011;41970;48.774;9.280;2022-07-09T12:05:31;4.83;;;2.43;;
56102;SDS011;41970;48.774;9.280;2022-07-09T12:08:02;2.60;;;1.90;;
56102;SDS011;41970;48.774;9.280;2022-07-09T12:10:33;2.40;;;1.90;;
56102;SDS011;41970;48.774;9.280;2022-07-09T12:13:01;1.63;;;1.53;;
56102;SDS011;41970;48.774;9.280;2022-07-09T12:15:28;2.47;;;1.63;;
56102;SDS011;41970;48.774;9.280;2022-07-09T12:17:58;2.30;;;2.10;;
56102;SDS011;41970;48.774;9.280;2022-07-09T12:20:26;2.20;;;2.00;;
56102;SDS011;41970;48.774;9.280;2022-07-09T12:22:54;1.70;;;1.50;;
56102;SDS011;41970;48.774;9.280;2022-07-09T12:25:21;2.90;;;1.73;;
56102;SDS011;41970;48.774;9.280;2022-07-09T12:27:47;1.97;;;1.57;;
56102;SDS011;41970;48.774;9.280;2022-07-09T12:30:17;2.43;;;1.60;;
56102;SDS011;41970;48.774;9.280;2022-07-09T12:32:44;2.20;;;2.00;;
56102;SDS011;41970;48.774;9.280;2022-07-09T12:35:10;2.20;;;1.63;;
56102;SDS011;41970;48.774;9.280;2022-07-09T12:37:37;2.03;;;1.93;;
56102;SDS011;41970;48.774;9.280;2022-07-09T12:40:04;3.07;;;1.50;;
56102;SDS011;41970;48.774;9.280;2022-07-09T12:42:31;2.20;;;1.83;;
56102;SDS011;41970;48.774;9.280;2022-07-09T12:44:58;1.60;;;1.50;;
56102;SDS011;41970;48.774;9.280;2022-07-09T12:47:24;2.93;;;2.23;;
56102;SDS011;41970;48.774;9.280;2022-07-09T12:49:49;1.27;;;1.17;;
56102;SDS011;41970;48.774;9.280;2022-07-09T12:52:16;2.43;;;1.70;;
56102;SDS011;41970;48.774;9.280;2022-07-09T12:54:41;2.50;;;1.80;;
56102;SDS011;41970;48.774;9.280;2022-07-09T12:57:07;2.50;;;1.67;;
56102;SDS011;41970;48.774;9.280;2022-07-09T12:59:34;5.13;;;1.60;;
56102;SDS011;41970;48.774;9.280;2022-07-09T13:02:01;3.53;;;1.50;;
56102;SDS011;41970;48.774;9.280;2022-07-09T13:04:27;1.53;;;1.40;;
56102;SDS011;41970;48.774;9.280;2022-07-09T13:06:52;1.73;;;1.47;;
56102;SDS011;41970;48.774;9.280;2022-07-09T13:09:18;1.70;;;1.60;;
56102;SDS011;41970;48.774;9.280;2022-07-09T13:11:44;1.50;;;1.40;;
56102;SDS011;41970;48.774;9.280;2022-07-09T13:14:11;1.97;;;1.77;;
56102;SDS011;41970;48.774;9.280;2022-07-09T13:16:37;2.00;;;1.90;;
56102;SDS011;41970;48.774;9.280;2022-07-09T13:19:03;1.90;;;1.80;;
56102;SDS011;41970;48.774;9.280;2022-07-09T13:21:30;1.50;;;1.40;;
56102;SDS011;41970;48.774;9.280;2022-07-09T13:23:56;1.53;;;1.43;;
56102;SDS011;41970;48.774;9.280;2022-07-09T13:26:22;3.87;;;1.83;;
56102;SDS011;41970;48.774;9.280;2022-07-09T13:28:48;1.77;;;1.67;;
56102;SDS011;41970;48.774;9.280;2022-07-09T13:31:15;1.73;;;1.50;;
56102;SDS011;41970;48.774;9.280;2022-07-09T13:33:41;1.90;;;1.80;;
56102;SDS011;41970;48.774;9.280;2022-07-09T13:36:07;2.20;;;1.97;;
56102;SDS011;41970;48.774;9.280;2022-07-09T13:38:34;3.83;;;1.50;;
56102;SDS011;41970;48.774;9.280;2022-07-09T13:41:00;1.53;;;1.37;;
56102;SDS011;41970;48.774;9.280;2022-07-09T13:43:26;3.20;;;1.50;;
56102;SDS011;41970;48.774;9.280;2022-07-09T13:45:54;1.67;;;1.57;;
56102;SDS011;41970;48.774;9.280;2022-07-09T13:48:22;1.40;;;1.30;;
56102;SDS011;41970;48.774;9.280;2022-07-09T13:50:49;1.50;;;1.40;;
56102;SDS011;41970;48.774;9.280;2022-07-09T13:53:15;2.13;;;1.43;;
56102;SDS011;41970;48.774;9.280;2022-07-09T13:55:41;1.40;;;1.30;;
56102;SDS011;41970;48.774;9.280;2022-07-09T13:58:07;1.23;;;1.13;;
56102;SDS011;41970;48.774;9.280;2022-07-09T14:00:33;1.67;;;1.33;;
56102;SDS011;41970;48.774;9.280;2022-07-09T14:03:02;1.50;;;1.40;;
56102;SDS011;41970;48.774;9.280;2022-07-09T14:05:28;2.67;;;1.90;;
56102;SDS011;41970;48.774;9.280;2022-07-09T14:07:54;1.60;;;1.50;;
56102;SDS011;41970;48.774;9.280;2022-07-09T14:10:21;2.00;;;1.90;;
56102;SDS011;41970;48.774;9.280;2022-07-09T14:12:48;3.03;;;1.37;;
56102;SDS011;41970;48.774;9.280;2022-07-09T14:15:14;2.60;;;1.47;;
56102;SDS011;41970;48.774;9.280;2022-07-09T14:17:40;3.77;;;1.70;;
56102;SDS011;41970;48.774;9.280;2022-07-09T14:20:07;2.13;;;2.03;;
56102;SDS011;41970;48.774;9.280;2022-07-09T14:22:33;1.73;;;1.63;;
56102;SDS011;41970;48.774;9.280;2022-07-09T14:24:59;4.03;;;1.43;;
56102;SDS011;41970;48.774;9.280;2022-07-09T14:27:25;2.00;;;1.80;;
56102;SDS011;41970;48.774;9.280;2022-07-09T14:29:51;2.40;;;1.73;;
56102;SDS011;41970;48.774;9.280;2022-07-09T14:32:16;1.83;;;1.70;;
56102;SDS011;41970;48.774;9.280;2022-07-09T14:34:42;1.90;;;1.57;;
56102;SDS011;41970;48.774;9.280;2022-07-09T14:37:08;1.50;;;1.20;;
56102;SDS011;41970;48.774;9.280;2022-07-09T14:39:34;2.00;;;1.70;;
56102;SDS011;41970;48.774;9.280;2022-07-09T14:42:00;3.20;;;1.90;;
56102;SDS011;41970;48.774;9.280;2022-07-09T14:44:26;1.63;;;1.53;;
56102;SDS011;41970;48.774;9.280;2022-07-09T14:46:55;1.90;;;1.80;;
56102;SDS011;41970;48.774;9.280;2022-07-09T14:49:23;2.07;;;1.57;;
56102;SDS011;41970;48.774;9.280;2022-07-09T14:51:49;2.30;;;1.60;;
56102;SDS011;41970;48.774;9.280;2022-07-09T14:54:15;2.80;;;1.87;;